createdAt,value
2019-04-25T00:00:15.515Z,86.40
2019-04-25T00:02:45.074Z,85.40
2019-04-25T00:05:16.190Z,86.80
2019-04-25T00:07:45.894Z,86.80
2019-04-25T00:10:15.995Z,87.10
2019-04-25T00:12:48.079Z,86.70
2019-04-25T00:15:17.590Z,87.10
2019-04-25T00:17:47.070Z,87.60
2019-04-25T00:20:17.120Z,88.50
2019-04-25T00:22:59.498Z,88.60
2019-04-25T00:25:47.215Z,88.40
2019-04-25T00:28:16.932Z,88.80
2019-04-25T00:30:46.520Z,88.50
2019-04-25T00:33:16.062Z,88.00
2019-04-25T00:35:45.790Z,88.10
2019-04-25T00:38:15.340Z,88.20
2019-04-25T00:40:46.622Z,88.60
2019-04-25T00:43:19.066Z,88.60
2019-04-25T00:45:48.534Z,88.70
2019-04-25T00:48:18.019Z,89.00
2019-04-25T00:50:48.022Z,88.60
2019-04-25T00:53:17.669Z,88.20
2019-04-25T00:55:47.240Z,88.20
2019-04-25T00:58:42.182Z,87.90
2019-04-25T01:01:36.718Z,88.20
2019-04-25T01:04:06.342Z,88.50
2019-04-25T01:06:36.118Z,88.60
2019-04-25T01:09:09.330Z,87.80
2019-04-25T01:11:38.804Z,88.90
2019-04-25T01:14:08.289Z,88.10
2019-04-25T01:16:37.909Z,88.20
2019-04-25T01:19:07.499Z,88.40
2019-04-25T01:21:36.970Z,88.70
2019-04-25T01:24:06.518Z,88.20
2019-04-25T01:26:36.065Z,88.40
2019-04-25T01:29:07.526Z,88.40
2019-04-25T01:31:37.536Z,87.80
2019-04-25T01:34:09.447Z,87.60
2019-04-25T01:36:49.441Z,88.10
2019-04-25T01:40:04.143Z,88.00
2019-04-25T01:42:58.563Z,87.70
2019-04-25T01:45:30.711Z,88.40
2019-04-25T01:48:00.204Z,88.30
2019-04-25T01:50:29.726Z,88.70
2019-04-25T01:52:59.681Z,88.00
2019-04-25T01:55:29.700Z,87.90
2019-04-25T01:57:59.395Z,88.10
2019-04-25T02:00:35.526Z,88.70
2019-04-25T02:03:05.607Z,88.20
2019-04-25T02:05:35.040Z,88.30
2019-04-25T02:08:06.883Z,88.50
2019-04-25T02:10:36.230Z,88.30
2019-04-25T02:13:07.657Z,87.90
2019-04-25T02:15:37.143Z,88.20
2019-04-25T02:18:06.707Z,88.50
2019-04-25T02:20:36.190Z,88.60
2019-04-25T02:23:05.727Z,88.80
2019-04-25T02:25:35.307Z,88.40
2019-04-25T02:28:05.698Z,88.00
2019-04-25T02:30:35.723Z,88.00
2019-04-25T02:33:08.951Z,88.20
2019-04-25T02:35:36.583Z,88.00
2019-04-25T02:38:08.895Z,87.80
2019-04-25T02:40:37.299Z,87.60
2019-04-25T02:43:08.247Z,87.80
2019-04-25T02:45:58.444Z,87.60
2019-04-25T02:48:51.957Z,87.50
2019-04-25T02:51:27.959Z,87.20
2019-04-25T02:53:57.919Z,88.40
2019-04-25T02:56:34.419Z,87.10
2019-04-25T02:58:58.691Z,86.90
2019-04-25T03:01:28.155Z,86.50
2019-04-25T03:03:59.293Z,86.90
2019-04-25T03:06:28.929Z,87.70
2019-04-25T03:09:00.121Z,87.80
2019-04-25T03:11:29.602Z,87.40
2019-04-25T03:14:00.516Z,87.70
2019-04-25T03:16:30.365Z,87.90
2019-04-25T03:19:14.140Z,88.00
2019-04-25T03:21:45.253Z,87.80
2019-04-25T03:24:16.846Z,87.10
2019-04-25T03:26:47.199Z,87.20
2019-04-25T03:29:16.678Z,87.50
2019-04-25T03:31:46.221Z,87.80
2019-04-25T03:34:20.250Z,88.10
2019-04-25T03:36:46.986Z,87.50
2019-04-25T03:39:16.595Z,88.40
2019-04-25T03:41:46.220Z,88.50
2019-04-25T03:44:16.174Z,87.80
2019-04-25T03:46:45.777Z,88.90
2019-04-25T03:49:15.326Z,88.90
2019-04-25T03:51:44.883Z,89.20
2019-04-25T03:54:14.421Z,89.50
2019-04-25T03:57:05.214Z,89.40
2019-04-25T04:02:27.727Z,89.00
2019-04-25T04:07:40.358Z,86.90
2019-04-25T04:10:28.857Z,88.00
2019-04-25T04:13:17.348Z,87.40
2019-04-25T04:16:06.482Z,87.00
2019-04-25T04:18:57.138Z,87.20
2019-04-25T04:24:34.170Z,86.70
2019-04-25T04:27:23.958Z,86.40
2019-04-25T04:30:14.154Z,85.90
2019-04-25T04:33:03.620Z,86.50
2019-04-25T04:35:52.224Z,86.30
2019-04-25T04:38:40.799Z,86.40
2019-04-25T04:41:23.842Z,86.60
2019-04-25T04:44:04.712Z,86.50
2019-04-25T04:46:34.183Z,87.20
2019-04-25T04:49:03.905Z,87.50
2019-04-25T04:51:33.688Z,87.50
2019-04-25T04:54:03.493Z,86.60
2019-04-25T04:56:34.196Z,87.00
2019-04-25T05:02:17.574Z,87.00
2019-04-25T05:05:05.938Z,87.10
2019-04-25T05:08:14.975Z,87.50
2019-04-25T05:10:44.770Z,87.50
2019-04-25T05:13:34.213Z,87.40
2019-04-25T05:16:38.343Z,87.50
2019-04-25T05:19:34.551Z,88.10
2019-04-25T05:22:24.362Z,87.10
2019-04-25T05:25:15.301Z,87.10
2019-04-25T05:28:05.342Z,86.50
2019-04-25T05:34:03.778Z,86.60
2019-04-25T05:36:53.769Z,87.20
2019-04-25T05:39:43.490Z,87.70
2019-04-25T05:42:50.880Z,88.50
2019-04-25T05:45:39.385Z,88.50
2019-04-25T05:48:28.260Z,87.20
2019-04-25T05:51:17.408Z,87.50
2019-04-25T05:56:55.333Z,87.60
2019-04-25T05:59:26.702Z,86.30
2019-04-25T06:02:17.822Z,87.10
2019-04-25T06:05:28.217Z,88.70
2019-04-25T06:11:44.965Z,86.20
2019-04-25T06:14:33.523Z,87.00
2019-04-25T06:20:44.756Z,87.50
2019-04-25T06:24:11.142Z,86.70
2019-04-25T06:27:19.703Z,86.80
2019-04-25T06:30:27.987Z,86.60
2019-04-25T06:33:17.176Z,85.90
2019-04-25T06:36:05.688Z,86.30
2019-04-25T06:38:54.281Z,82.60
2019-04-25T06:41:44.096Z,84.70
2019-04-25T06:47:57.567Z,79.70
2019-04-25T06:50:46.081Z,79.70
2019-04-25T06:53:34.771Z,82.40
2019-04-25T06:56:25.253Z,83.30
2019-04-25T06:58:56.159Z,80.10
2019-04-25T07:01:37.471Z,77.90
2019-04-25T07:04:19.169Z,77.40
2019-04-25T07:07:10.447Z,78.40
2019-04-25T07:09:43.370Z,77.30
2019-04-25T07:12:13.475Z,75.40
2019-04-25T07:15:03.885Z,76.40
2019-04-25T07:17:54.009Z,75.30
2019-04-25T07:20:26.120Z,76.80
2019-04-25T07:23:14.420Z,76.10
2019-04-25T07:26:21.852Z,77.30
2019-04-25T07:32:29.663Z,74.00
2019-04-25T07:35:17.663Z,74.30
2019-04-25T07:38:06.578Z,73.50
2019-04-25T07:40:55.190Z,75.30
2019-04-25T07:43:43.578Z,77.70
2019-04-25T07:46:54.122Z,75.70
2019-04-25T07:49:43.289Z,75.20
2019-04-25T07:52:13.712Z,76.70
2019-04-25T07:55:03.680Z,73.30
2019-04-25T07:57:34.595Z,69.50
2019-04-25T08:00:05.578Z,70.00
2019-04-25T08:02:35.078Z,68.40
2019-04-25T08:05:11.099Z,68.30
2019-04-25T08:07:59.505Z,69.10
2019-04-25T08:11:06.994Z,71.00
2019-04-25T08:14:14.492Z,67.90
2019-04-25T08:17:03.886Z,72.90
2019-04-25T08:19:52.285Z,68.50
2019-04-25T08:22:51.985Z,68.80
2019-04-25T08:25:33.777Z,66.00
2019-04-25T08:28:21.750Z,66.60
2019-04-25T08:30:51.093Z,68.70
2019-04-25T08:33:20.627Z,68.70
2019-04-25T08:36:04.229Z,70.00
2019-04-25T08:38:21.012Z,72.90
2019-04-25T08:40:50.600Z,71.40
2019-04-25T08:43:20.059Z,71.00
2019-04-25T08:45:49.428Z,71.40
2019-04-25T08:48:18.899Z,69.30
2019-04-25T08:54:25.621Z,63.40
2019-04-25T09:00:16.035Z,61.60
2019-04-25T09:02:54.496Z,64.60
2019-04-25T09:05:28.462Z,66.80
2019-04-25T09:07:57.818Z,65.30
2019-04-25T09:10:27.392Z,64.90
2019-04-25T09:13:15.983Z,65.40
2019-04-25T09:16:04.556Z,65.90
2019-04-25T09:18:54.019Z,66.10
2019-04-25T09:21:48.090Z,65.90
2019-04-25T09:24:13.779Z,69.10
2019-04-25T09:27:03.666Z,64.20
2019-04-25T09:29:54.196Z,61.70
2019-04-25T09:32:44.435Z,62.70
2019-04-25T09:35:14.083Z,61.70
2019-04-25T09:38:03.429Z,60.70
2019-04-25T09:40:54.139Z,61.50
2019-04-25T09:43:37.312Z,61.00
2019-04-25T09:46:24.337Z,63.30
2019-04-25T09:49:10.319Z,61.50
2019-04-25T09:51:44.596Z,59.70
2019-04-25T09:54:33.509Z,57.90
2019-04-25T09:57:41.122Z,58.80
2019-04-25T10:00:20.222Z,63.10
2019-04-25T10:02:49.722Z,62.20
2019-04-25T10:05:19.196Z,61.80
2019-04-25T10:07:49.284Z,60.60
2019-04-25T10:10:19.896Z,61.70
2019-04-25T10:12:49.992Z,59.40
2019-04-25T10:15:31.992Z,58.70
2019-04-25T10:18:01.627Z,59.90
2019-04-25T10:20:31.086Z,57.00
2019-04-25T10:23:00.647Z,57.50
2019-04-25T10:25:30.211Z,61.50
2019-04-25T10:27:59.779Z,58.40
2019-04-25T10:30:29.331Z,58.30
2019-04-25T10:32:58.845Z,59.70
2019-04-25T10:35:28.538Z,59.20
2019-04-25T10:37:58.150Z,61.20
2019-04-25T10:40:28.910Z,60.30
2019-04-25T10:42:59.253Z,58.60
2019-04-25T10:45:28.907Z,60.20
2019-04-25T10:47:58.775Z,62.40
2019-04-25T10:50:28.423Z,59.10
2019-04-25T10:52:57.967Z,60.00
2019-04-25T10:55:28.666Z,60.20
2019-04-25T10:57:58.304Z,58.50
2019-04-25T11:00:37.598Z,58.10
2019-04-25T11:03:33.736Z,60.20
2019-04-25T11:06:04.023Z,59.70
2019-04-25T11:08:34.172Z,60.30
2019-04-25T11:11:03.919Z,58.40
2019-04-25T11:13:35.384Z,56.30
2019-04-25T11:16:06.240Z,55.60
2019-04-25T11:18:36.450Z,56.30
2019-04-25T11:21:06.228Z,55.30
2019-04-25T11:23:36.171Z,55.60
2019-04-25T11:26:05.990Z,54.20
2019-04-25T11:28:35.862Z,58.00
2019-04-25T11:31:07.099Z,55.20
2019-04-25T11:33:36.956Z,53.30
2019-04-25T11:36:06.761Z,53.10
2019-04-25T11:38:52.257Z,52.50
2019-04-25T11:41:30.558Z,54.20
2019-04-25T11:44:00.501Z,51.10
2019-04-25T11:46:30.238Z,50.60
2019-04-25T11:48:59.905Z,50.80
2019-04-25T11:51:29.488Z,48.40
2019-04-25T11:53:59.152Z,50.30
2019-04-25T11:56:28.703Z,48.30
2019-04-25T11:58:58.511Z,51.10
2019-04-25T12:01:28.122Z,49.00
2019-04-25T12:03:57.993Z,49.60
2019-04-25T12:06:27.563Z,51.10
2019-04-25T12:08:57.143Z,48.60
2019-04-25T12:11:28.497Z,48.90
2019-04-25T12:13:58.163Z,48.50
2019-04-25T12:16:28.449Z,49.40
2019-04-25T12:18:58.007Z,49.10
2019-04-25T12:21:27.684Z,48.00
2019-04-25T12:23:58.056Z,48.10
2019-04-25T12:26:27.680Z,46.70
2019-04-25T12:28:58.357Z,48.00
2019-04-25T12:31:28.115Z,47.60
2019-04-25T12:33:58.897Z,46.40
2019-04-25T12:36:28.467Z,46.50
2019-04-25T12:38:58.780Z,47.50
2019-04-25T12:41:30.854Z,48.20
2019-04-25T12:44:33.548Z,48.30
2019-04-25T12:47:07.834Z,47.90
2019-04-25T12:49:37.501Z,47.20
2019-04-25T12:52:07.920Z,46.30
2019-04-25T12:54:38.458Z,47.20
2019-04-25T12:57:09.453Z,46.20
2019-04-25T12:59:39.081Z,47.70
2019-04-25T13:02:08.661Z,48.60
2019-04-25T13:04:39.345Z,46.70
2019-04-25T13:07:08.891Z,45.80
2019-04-25T13:09:38.475Z,45.60
2019-04-25T13:12:10.797Z,47.10
2019-04-25T13:14:40.413Z,47.20
2019-04-25T13:17:10.230Z,47.70
2019-04-25T13:19:39.780Z,48.00
2019-04-25T13:22:09.486Z,46.60
2019-04-25T13:24:39.047Z,47.20
2019-04-25T13:27:15.745Z,47.60
2019-04-25T13:30:05.197Z,47.70
2019-04-25T13:32:59.554Z,48.10
2019-04-25T13:35:36.674Z,48.80
2019-04-25T13:38:06.248Z,47.80
2019-04-25T13:40:36.001Z,46.70
2019-04-25T13:43:06.194Z,47.00
2019-04-25T13:45:36.279Z,48.60
2019-04-25T13:48:06.166Z,49.40
2019-04-25T13:50:36.003Z,46.80
2019-04-25T13:53:05.598Z,48.20
2019-04-25T13:55:35.142Z,47.20
2019-04-25T13:58:04.773Z,47.30
2019-04-25T14:00:34.904Z,47.40
2019-04-25T14:03:04.859Z,46.20
2019-04-25T14:05:35.311Z,46.50
2019-04-25T14:08:04.937Z,47.20
2019-04-25T14:10:37.234Z,46.30
2019-04-25T14:13:06.798Z,45.20
2019-04-25T14:15:38.039Z,46.40
2019-04-25T14:18:36.247Z,46.00
2019-04-25T14:21:13.700Z,46.10
2019-04-25T14:23:44.292Z,46.20
2019-04-25T14:26:14.271Z,47.30
2019-04-25T14:28:44.284Z,46.20
2019-04-25T14:31:30.481Z,44.90
2019-04-25T14:33:51.549Z,47.00
2019-04-25T14:36:31.096Z,46.20
2019-04-25T14:39:00.644Z,44.40
2019-04-25T14:41:30.315Z,43.70
2019-04-25T14:44:00.294Z,45.40
2019-04-25T14:46:29.988Z,45.40
2019-04-25T14:48:59.760Z,46.20
2019-04-25T14:51:30.629Z,44.90
2019-04-25T14:54:02.870Z,43.20
2019-04-25T14:56:42.367Z,43.70
2019-04-25T14:59:12.332Z,44.80
2019-04-25T15:01:45.022Z,42.20
2019-04-25T15:04:13.194Z,40.90
2019-04-25T15:06:42.711Z,43.80
2019-04-25T15:09:13.594Z,45.40
2019-04-25T15:11:43.144Z,42.30
2019-04-25T15:14:12.626Z,41.40
2019-04-25T15:16:42.146Z,42.90
2019-04-25T15:19:11.677Z,41.60
2019-04-25T15:21:41.232Z,44.10
2019-04-25T15:24:12.130Z,42.40
2019-04-25T15:26:41.688Z,43.40
2019-04-25T15:29:11.170Z,40.60
2019-04-25T15:31:41.770Z,44.00
2019-04-25T15:34:11.603Z,42.50
2019-04-25T15:36:55.841Z,41.60
2019-04-25T15:39:44.496Z,41.10
2019-04-25T15:42:30.329Z,43.60
2019-04-25T15:45:17.921Z,41.80
2019-04-25T15:47:47.934Z,43.10
2019-04-25T15:50:18.037Z,41.20
2019-04-25T15:52:47.505Z,39.50
2019-04-25T15:55:17.365Z,38.40
2019-04-25T15:57:46.915Z,36.80
2019-04-25T16:00:21.807Z,37.90
2019-04-25T16:03:10.504Z,39.50
2019-04-25T16:06:00.030Z,38.50
2019-04-25T16:08:48.631Z,39.50
2019-04-25T16:11:37.626Z,38.10
2019-04-25T16:14:28.300Z,36.90
2019-04-25T16:17:17.287Z,35.60
2019-04-25T16:20:05.810Z,35.20
2019-04-25T16:22:54.302Z,36.50
2019-04-25T16:25:42.651Z,37.30
2019-04-25T16:28:12.052Z,35.90
2019-04-25T16:31:00.718Z,31.70
2019-04-25T16:33:49.383Z,30.00
2019-04-25T16:36:18.793Z,29.50
2019-04-25T16:39:09.107Z,28.20
2019-04-25T16:41:57.610Z,28.70
2019-04-25T16:44:46.186Z,30.20
2019-04-25T16:47:35.159Z,32.60
2019-04-25T16:53:34.163Z,36.40
2019-04-25T16:56:22.598Z,38.40
2019-04-25T16:59:18.133Z,38.50
2019-04-25T17:01:47.765Z,40.80
2019-04-25T17:04:37.467Z,40.90
2019-04-25T17:10:30.314Z,42.70
2019-04-25T17:23:14.343Z,44.00
2019-04-25T17:25:43.928Z,44.20
2019-04-25T17:28:25.218Z,45.00
2019-04-25T17:33:55.892Z,45.70
2019-04-25T17:39:16.506Z,46.10
2019-04-25T17:44:40.743Z,47.40
2019-04-25T17:47:22.293Z,47.80
2019-04-25T17:49:51.829Z,48.40
2019-04-25T17:52:21.317Z,48.50
2019-04-25T17:54:51.708Z,48.70
2019-04-25T17:57:40.688Z,48.60
2019-04-25T18:03:41.905Z,48.70
2019-04-25T18:06:31.840Z,49.00
2019-04-25T18:09:20.514Z,49.00
2019-04-25T18:12:09.124Z,49.60
2019-04-25T18:17:35.264Z,50.20
2019-04-25T18:20:25.637Z,50.60
2019-04-25T18:23:33.002Z,50.60
2019-04-25T18:26:41.333Z,51.40
2019-04-25T18:29:22.842Z,51.60
2019-04-25T18:32:03.931Z,51.50
2019-04-25T18:37:41.145Z,52.20
2019-04-25T18:40:41.943Z,51.30
2019-04-25T18:43:28.299Z,52.00
2019-04-25T18:46:16.031Z,52.20
2019-04-25T18:48:57.066Z,52.20
2019-04-25T18:57:41.929Z,52.80
2019-04-25T19:06:02.842Z,53.00
2019-04-25T19:08:44.979Z,53.50
2019-04-25T19:11:14.747Z,53.60
2019-04-25T19:14:03.268Z,53.90
2019-04-25T19:16:52.060Z,53.60
2019-04-25T19:19:41.130Z,54.30
2019-04-25T19:22:10.770Z,54.60
2019-04-25T19:24:59.270Z,55.00
2019-04-25T19:30:14.343Z,55.20
2019-04-25T19:32:44.869Z,55.90
2019-04-25T19:35:33.962Z,56.10
2019-04-25T19:38:03.498Z,55.60
2019-04-25T19:41:10.796Z,56.30
2019-04-25T19:44:05.510Z,55.40
2019-04-25T19:46:53.973Z,55.30
2019-04-25T19:49:43.021Z,55.60
2019-04-25T19:52:31.556Z,56.00
2019-04-25T19:55:20.041Z,55.60
2019-04-25T19:58:08.997Z,56.00
2019-04-25T20:00:58.046Z,56.00
2019-04-25T20:04:05.668Z,55.70
2019-04-25T20:07:13.099Z,55.10
2019-04-25T20:10:20.537Z,57.10
2019-04-25T20:13:09.038Z,57.10
2019-04-25T20:15:57.610Z,57.50
2019-04-25T20:18:46.109Z,57.70
2019-04-25T20:21:34.734Z,56.50
2019-04-25T20:24:23.270Z,56.50
2019-04-25T20:27:11.776Z,56.10
2019-04-25T20:29:41.202Z,56.90
2019-04-25T20:32:10.618Z,56.50
2019-04-25T20:35:00.723Z,56.30
2019-04-25T20:37:49.333Z,57.00
2019-04-25T20:40:38.471Z,57.00
2019-04-25T20:43:47.548Z,57.40
2019-04-25T20:46:36.453Z,56.40
2019-04-25T20:49:24.953Z,56.80
2019-04-25T20:52:13.475Z,56.70
2019-04-25T20:55:05.163Z,56.70
2019-04-25T20:57:34.927Z,56.70
2019-04-25T21:00:43.638Z,57.40
2019-04-25T21:03:32.161Z,57.80
2019-04-25T21:09:22.484Z,58.00
2019-04-25T21:12:30.300Z,58.00
2019-04-25T21:21:45.699Z,58.20
2019-04-25T21:24:15.844Z,58.50
2019-04-25T21:27:02.769Z,58.80
2019-04-25T21:29:39.102Z,58.90
2019-04-25T21:32:27.823Z,59.50
2019-04-25T21:35:16.427Z,59.30
2019-04-25T21:38:04.994Z,59.30
2019-04-25T21:43:53.311Z,57.90
2019-04-25T21:49:52.339Z,57.90
2019-04-25T21:52:42.019Z,58.20
2019-04-25T21:55:13.627Z,58.20
2019-04-25T21:58:04.237Z,58.30
2019-04-25T22:03:44.898Z,59.60
2019-04-25T22:06:17.793Z,59.70
2019-04-25T22:08:47.872Z,61.50
2019-04-25T22:11:18.908Z,60.10
2019-04-25T22:13:48.924Z,60.80
2019-04-25T22:16:19.542Z,60.80
2019-04-25T22:18:49.326Z,61.80
2019-04-25T22:21:19.609Z,60.80
2019-04-25T22:23:49.423Z,60.90
2019-04-25T22:26:18.972Z,59.40
2019-04-25T22:28:54.854Z,59.20
2019-04-25T22:31:30.182Z,58.90
2019-04-25T22:34:13.899Z,60.80
2019-04-25T22:36:43.643Z,63.00
2019-04-25T22:39:13.927Z,61.60
2019-04-25T22:41:46.983Z,62.10
2019-04-25T22:44:18.019Z,63.80
2019-04-25T22:46:47.755Z,63.40
2019-04-25T22:49:18.054Z,62.00
2019-04-25T22:51:47.726Z,62.50
2019-04-25T22:54:17.975Z,64.40
2019-04-25T22:56:48.212Z,63.10
2019-04-25T22:59:18.177Z,64.00
2019-04-25T23:02:10.155Z,64.80
2019-04-25T23:04:45.472Z,63.00
2019-04-25T23:07:15.248Z,63.50
2019-04-25T23:09:45.398Z,62.80
2019-04-25T23:12:15.235Z,62.60
2019-04-25T23:14:45.163Z,62.60
2019-04-25T23:17:16.694Z,62.90
2019-04-25T23:19:46.615Z,62.70
2019-04-25T23:22:16.961Z,64.70
2019-04-25T23:25:07.628Z,64.40
2019-04-25T23:28:03.627Z,65.70
2019-04-25T23:30:38.955Z,66.90
2019-04-25T23:33:10.533Z,66.10
2019-04-25T23:35:41.722Z,65.40
2019-04-25T23:38:13.764Z,66.90
2019-04-25T23:40:42.998Z,67.00
2019-04-25T23:43:13.738Z,66.60
2019-04-25T23:45:43.691Z,67.00
2019-04-25T23:48:14.420Z,66.90
2019-04-25T23:50:44.097Z,66.70
2019-04-25T23:53:13.596Z,67.10
2019-04-25T23:55:43.116Z,67.00
2019-04-25T23:58:13.463Z,67.50
